sensor_id;sensor_type;location;lat;lon;timestamp;pressure;altitude;pressure_sealevel;temperature;humidity
3812;BME280;1921;49.368;11.068;2023-01-27T00:00:25;97910.06;;;-0.39;97.53
3812;BME280;1921;49.368;11.068;2023-01-27T00:02:51;97845.22;;;-0.52;97.33
3812;BME280;1921;49.368;11.068;2023-01-27T00:05:17;97871.34;;;-0.60;98.46
3812;BME280;1921;49.368;11.068;2023-01-27T00:07:43;97864.47;;;-0.72;100.00
3812;BME280;1921;49.368;11.068;2023-01-27T00:10:18;97920.75;;;-0.20;99.49
3812;BME280;1921;49.368;11.068;2023-01-27T00:12:45;97923.72;;;-0.26;98.78
3812;BME280;1921;49.368;11.068;2023-01-27T00:15:31;97892.03;;;-0.25;97.94
3812;BME280;1921;49.368;11.068;2023-01-27T00:17:58;97898.91;;;0.00;98.04
3812;BME280;1921;49.368;11.068;2023-01-27T00:20:24;97803.00;;;-0.47;97.91
3812;BME280;1921;49.368;11.068;2023-01-27T00:23:21;97809.88;;;-0.73;97.97
3812;BME280;1921;49.368;11.068;2023-01-27T00:26:09;97816.94;;;-0.51;97.95
3812;BME280;1921;49.368;11.068;2023-01-27T00:28:37;97851.34;;;-0.17;97.35
3812;BME280;1921;49.368;11.068;2023-01-27T00:31:04;97876.69;;;-0.12;97.62
3812;BME280;1921;49.368;11.068;2023-01-27T00:33:32;97865.41;;;-0.35;98.29
3812;BME280;1921;49.368;11.068;2023-01-27T00:36:07;97821.84;;;-0.22;97.60
3812;BME280;1921;49.368;11.068;2023-01-27T00:38:35;97846.00;;;-0.01;97.32
3812;BME280;1921;49.368;11.068;2023-01-27T00:41:07;97841.00;;;-0.15;97.36
3812;BME280;1921;49.368;11.068;2023-01-27T00:43:50;97823.75;;;-0.13;95.75
3812;BME280;1921;49.368;11.068;2023-01-27T00:46:17;97860.53;;;0.11;95.79
3812;BME280;1921;49.368;11.068;2023-01-27T00:48:44;97854.84;;;-0.56;97.37
3812;BME280;1921;49.368;11.068;2023-01-27T00:51:10;97885.50;;;-0.16;97.91
3812;BME280;1921;49.368;11.068;2023-01-27T00:53:36;97881.25;;;0.08;97.75
3812;BME280;1921;49.368;11.068;2023-01-27T00:56:02;97840.69;;;-0.11;96.80
3812;BME280;1921;49.368;11.068;2023-01-27T00:58:28;97886.59;;;0.05;97.02
3812;BME280;1921;49.368;11.068;2023-01-27T01:00:57;97867.53;;;-0.04;96.29
3812;BME280;1921;49.368;11.068;2023-01-27T01:03:25;97848.78;;;-0.04;96.21
3812;BME280;1921;49.368;11.068;2023-01-27T01:05:51;97878.25;;;0.27;96.64
3812;BME280;1921;49.368;11.068;2023-01-27T01:08:18;97862.63;;;0.30;96.78
3812;BME280;1921;49.368;11.068;2023-01-27T01:10:44;97732.50;;;-0.40;96.67
3812;BME280;1921;49.368;11.068;2023-01-27T01:13:10;97855.59;;;0.21;95.73
3812;BME280;1921;49.368;11.068;2023-01-27T01:15:38;97869.25;;;0.21;95.36
3812;BME280;1921;49.368;11.068;2023-01-27T01:18:04;97827.72;;;0.04;95.02
3812;BME280;1921;49.368;11.068;2023-01-27T01:20:30;97848.84;;;0.20;95.29
3812;BME280;1921;49.368;11.068;2023-01-27T01:22:56;97888.59;;;0.38;95.05
3812;BME280;1921;49.368;11.068;2023-01-27T01:25:22;97920.13;;;0.02;96.04
3812;BME280;1921;49.368;11.068;2023-01-27T01:27:47;97837.75;;;-0.56;97.16
3812;BME280;1921;49.368;11.068;2023-01-27T01:30:13;97897.88;;;0.03;96.86
3812;BME280;1921;49.368;11.068;2023-01-27T01:32:39;97863.66;;;-0.09;96.27
3812;BME280;1921;49.368;11.068;2023-01-27T01:35:05;97889.66;;;0.10;96.39
3812;BME280;1921;49.368;11.068;2023-01-27T01:37:31;97875.63;;;0.03;96.38
3812;BME280;1921;49.368;11.068;2023-01-27T01:39:56;97880.03;;;0.14;95.66
3812;BME280;1921;49.368;11.068;2023-01-27T01:42:22;97853.34;;;0.16;95.26
3812;BME280;1921;49.368;11.068;2023-01-27T01:47:41;97870.38;;;0.17;94.79
3812;BME280;1921;49.368;11.068;2023-01-27T01:50:07;97905.22;;;0.33;94.93
3812;BME280;1921;49.368;11.068;2023-01-27T01:52:33;97838.22;;;-0.25;95.00
3812;BME280;1921;49.368;11.068;2023-01-27T01:54:59;97824.28;;;-0.21;95.55
3812;BME280;1921;49.368;11.068;2023-01-27T01:57:32;97876.31;;;0.18;95.92
3812;BME280;1921;49.368;11.068;2023-01-27T02:00:06;97912.47;;;0.51;96.43
3812;BME280;1921;49.368;11.068;2023-01-27T02:02:32;97876.06;;;0.34;96.52
3812;BME280;1921;49.368;11.068;2023-01-27T02:05:25;97885.81;;;0.65;96.58
3812;BME280;1921;49.368;11.068;2023-01-27T02:08:00;97896.16;;;0.76;96.09
3812;BME280;1921;49.368;11.068;2023-01-27T02:10:28;97847.59;;;0.49;94.43
3812;BME280;1921;49.368;11.068;2023-01-27T02:12:53;97898.72;;;0.76;92.93
3812;BME280;1921;49.368;11.068;2023-01-27T02:15:19;97848.81;;;0.57;93.91
3812;BME280;1921;49.368;11.068;2023-01-27T02:17:48;97909.69;;;0.78;93.51
3812;BME280;1921;49.368;11.068;2023-01-27T02:23:33;97899.81;;;0.85;94.18
3812;BME280;1921;49.368;11.068;2023-01-27T02:26:29;97903.72;;;0.54;93.97
3812;BME280;1921;49.368;11.068;2023-01-27T02:29:11;97898.59;;;0.54;93.51
3812;BME280;1921;49.368;11.068;2023-01-27T02:31:37;97810.88;;;0.12;94.36
3812;BME280;1921;49.368;11.068;2023-01-27T02:34:16;97856.69;;;0.30;94.28
3812;BME280;1921;49.368;11.068;2023-01-27T02:37:06;97886.69;;;0.53;94.46
3812;BME280;1921;49.368;11.068;2023-01-27T02:39:39;97890.56;;;0.59;94.46
3812;BME280;1921;49.368;11.068;2023-01-27T02:42:09;97847.91;;;0.21;94.81
3812;BME280;1921;49.368;11.068;2023-01-27T02:44:36;97866.53;;;0.36;95.14
3812;BME280;1921;49.368;11.068;2023-01-27T02:47:02;97871.44;;;0.39;95.18
3812;BME280;1921;49.368;11.068;2023-01-27T02:49:28;97879.53;;;0.45;95.67
3812;BME280;1921;49.368;11.068;2023-01-27T02:51:54;97855.28;;;0.25;95.11
3812;BME280;1921;49.368;11.068;2023-01-27T02:54:19;97868.78;;;0.40;94.69
3812;BME280;1921;49.368;11.068;2023-01-27T02:56:45;97915.84;;;0.52;94.77
3812;BME280;1921;49.368;11.068;2023-01-27T02:59:11;97849.50;;;-0.28;96.10
3812;BME280;1921;49.368;11.068;2023-01-27T03:01:37;97856.81;;;-0.47;98.17
3812;BME280;1921;49.368;11.068;2023-01-27T03:04:02;97862.69;;;-0.97;100.00
3812;BME280;1921;49.368;11.068;2023-01-27T03:06:28;97852.88;;;-0.78;100.00
3812;BME280;1921;49.368;11.068;2023-01-27T03:08:54;97866.31;;;-0.74;100.00
3812;BME280;1921;49.368;11.068;2023-01-27T03:11:19;97835.75;;;-0.90;100.00
3812;BME280;1921;49.368;11.068;2023-01-27T03:14:05;97829.50;;;-1.39;100.00
3812;BME280;1921;49.368;11.068;2023-01-27T03:16:31;97862.22;;;-1.17;100.00
3812;BME280;1921;49.368;11.068;2023-01-27T03:19:14;97883.66;;;-1.05;100.00
3812;BME280;1921;49.368;11.068;2023-01-27T03:21:40;97865.34;;;-0.99;100.00
3812;BME280;1921;49.368;11.068;2023-01-27T03:24:06;97868.38;;;-0.67;100.00
3812;BME280;1921;49.368;11.068;2023-01-27T03:26:31;97861.22;;;-0.49;100.00
3812;BME280;1921;49.368;11.068;2023-01-27T03:28:57;97833.63;;;-0.58;100.00
3812;BME280;1921;49.368;11.068;2023-01-27T03:31:54;97852.91;;;-0.40;100.00
3812;BME280;1921;49.368;11.068;2023-01-27T03:34:20;97858.44;;;-0.20;100.00
3812;BME280;1921;49.368;11.068;2023-01-27T03:36:46;97851.28;;;-0.53;100.00
3812;BME280;1921;49.368;11.068;2023-01-27T03:39:30;97823.38;;;-0.45;100.00
3812;BME280;1921;49.368;11.068;2023-01-27T03:42:14;97826.06;;;-0.85;100.00
3812;BME280;1921;49.368;11.068;2023-01-27T03:44:58;97909.78;;;-0.22;100.00
3812;BME280;1921;49.368;11.068;2023-01-27T03:47:42;97876.66;;;-0.50;100.00
3812;BME280;1921;49.368;11.068;2023-01-27T03:50:08;97848.56;;;-0.90;100.00
3812;BME280;1921;49.368;11.068;2023-01-27T03:52:36;97868.78;;;-0.73;100.00
3812;BME280;1921;49.368;11.068;2023-01-27T03:55:02;97858.50;;;-0.86;100.00
3812;BME280;1921;49.368;11.068;2023-01-27T03:57:28;97862.94;;;-1.15;100.00
3812;BME280;1921;49.368;11.068;2023-01-27T03:59:54;97910.88;;;-0.64;100.00
3812;BME280;1921;49.368;11.068;2023-01-27T04:02:20;97900.72;;;-0.66;100.00
3812;BME280;1921;49.368;11.068;2023-01-27T04:05:04;97852.72;;;-1.02;100.00
3812;BME280;1921;49.368;11.068;2023-01-27T04:07:49;97844.44;;;-1.05;100.00
3812;BME280;1921;49.368;11.068;2023-01-27T04:10:15;97879.94;;;-0.61;100.00
3812;BME280;1921;49.368;11.068;2023-01-27T04:12:41;97874.59;;;-0.84;100.00
3812;BME280;1921;49.368;11.068;2023-01-27T04:15:07;97840.09;;;-1.30;100.00
3812;BME280;1921;49.368;11.068;2023-01-27T04:17:33;97886.03;;;-0.89;100.00
3812;BME280;1921;49.368;11.068;2023-01-27T04:20:04;97858.13;;;-1.06;100.00
3812;BME280;1921;49.368;11.068;2023-01-27T04:22:30;97890.69;;;-0.56;100.00
3812;BME280;1921;49.368;11.068;2023-01-27T04:24:55;97857.81;;;-0.62;100.00
3812;BME280;1921;49.368;11.068;2023-01-27T04:27:21;97869.50;;;-0.45;100.00
3812;BME280;1921;49.368;11.068;2023-01-27T04:29:47;97894.81;;;-0.41;100.00
3812;BME280;1921;49.368;11.068;2023-01-27T04:32:13;97824.50;;;-0.88;100.00
3812;BME280;1921;49.368;11.068;2023-01-27T04:34:39;97890.03;;;-0.98;100.00
3812;BME280;1921;49.368;11.068;2023-01-27T04:37:07;97867.53;;;-1.47;100.00
3812;BME280;1921;49.368;11.068;2023-01-27T04:39:34;97901.16;;;-1.26;100.00
3812;BME280;1921;49.368;11.068;2023-01-27T04:42:00;97867.41;;;-1.18;100.00
3812;BME280;1921;49.368;11.068;2023-01-27T04:44:26;97890.06;;;-1.12;100.00
3812;BME280;1921;49.368;11.068;2023-01-27T04:46:51;97858.94;;;-1.19;100.00
3812;BME280;1921;49.368;11.068;2023-01-27T04:49:19;97860.66;;;-1.19;100.00
3812;BME280;1921;49.368;11.068;2023-01-27T04:51:45;97901.13;;;-1.12;100.00
3812;BME280;1921;49.368;11.068;2023-01-27T04:54:10;97840.81;;;-1.28;100.00
3812;BME280;1921;49.368;11.068;2023-01-27T04:56:58;97849.78;;;-1.36;100.00
3812;BME280;1921;49.368;11.068;2023-01-27T04:59:25;97876.06;;;-1.06;100.00
3812;BME280;1921;49.368;11.068;2023-01-27T05:01:51;97917.72;;;-0.77;100.00
3812;BME280;1921;49.368;11.068;2023-01-27T05:04:16;97879.25;;;-1.03;100.00
3812;BME280;1921;49.368;11.068;2023-01-27T05:06:42;97863.34;;;-1.21;100.00
3812;BME280;1921;49.368;11.068;2023-01-27T05:09:08;97875.56;;;-1.12;100.00
3812;BME280;1921;49.368;11.068;2023-01-27T05:11:33;97898.44;;;-1.23;100.00
3812;BME280;1921;49.368;11.068;2023-01-27T05:13:59;97875.41;;;-1.23;100.00
3812;BME280;1921;49.368;11.068;2023-01-27T05:16:25;97856.63;;;-0.96;100.00
3812;BME280;1921;49.368;11.068;2023-01-27T05:18:52;97874.69;;;-0.85;100.00
3812;BME280;1921;49.368;11.068;2023-01-27T05:21:22;97817.81;;;-1.16;99.77
3812;BME280;1921;49.368;11.068;2023-01-27T05:23:48;97871.38;;;-0.87;100.00
3812;BME280;1921;49.368;11.068;2023-01-27T05:26:21;97880.75;;;-0.73;100.00
3812;BME280;1921;49.368;11.068;2023-01-27T05:28:48;97841.72;;;-0.77;99.38
3812;BME280;1921;49.368;11.068;2023-01-27T05:31:21;97881.78;;;-0.38;96.97
3812;BME280;1921;49.368;11.068;2023-01-27T05:33:50;97890.03;;;-0.85;97.72
3812;BME280;1921;49.368;11.068;2023-01-27T05:36:18;97861.91;;;-1.12;99.01
3812;BME280;1921;49.368;11.068;2023-01-27T05:38:48;97931.22;;;-0.75;98.84
3812;BME280;1921;49.368;11.068;2023-01-27T05:41:16;97887.75;;;-1.02;99.68
3812;BME280;1921;49.368;11.068;2023-01-27T05:43:43;97885.97;;;-1.42;100.00
3812;BME280;1921;49.368;11.068;2023-01-27T05:46:17;97945.19;;;-1.21;100.00
3812;BME280;1921;49.368;11.068;2023-01-27T05:48:48;97940.19;;;-1.22;100.00
3812;BME280;1921;49.368;11.068;2023-01-27T05:51:16;97908.94;;;-1.27;100.00
3812;BME280;1921;49.368;11.068;2023-01-27T05:53:43;97962.88;;;-1.03;100.00
3812;BME280;1921;49.368;11.068;2023-01-27T05:56:11;97893.94;;;-1.46;100.00
3812;BME280;1921;49.368;11.068;2023-01-27T05:58:38;97883.50;;;-1.84;100.00
3812;BME280;1921;49.368;11.068;2023-01-27T06:01:17;97911.75;;;-1.59;100.00
3812;BME280;1921;49.368;11.068;2023-01-27T06:03:44;97964.88;;;-1.50;100.00
3812;BME280;1921;49.368;11.068;2023-01-27T06:06:11;97920.81;;;-1.82;100.00
3812;BME280;1921;49.368;11.068;2023-01-27T06:08:38;97928.50;;;-1.82;100.00
3812;BME280;1921;49.368;11.068;2023-01-27T06:11:04;97953.22;;;-1.54;100.00
3812;BME280;1921;49.368;11.068;2023-01-27T06:13:31;97879.06;;;-2.09;100.00
3812;BME280;1921;49.368;11.068;2023-01-27T06:16:02;97953.56;;;-1.74;100.00
3812;BME280;1921;49.368;11.068;2023-01-27T06:18:28;97932.47;;;-1.49;100.00
3812;BME280;1921;49.368;11.068;2023-01-27T06:20:58;97920.47;;;-1.34;100.00
3812;BME280;1921;49.368;11.068;2023-01-27T06:23:23;97914.44;;;-1.33;100.00
3812;BME280;1921;49.368;11.068;2023-01-27T06:25:49;97933.22;;;-1.20;100.00
3812;BME280;1921;49.368;11.068;2023-01-27T06:28:16;97935.59;;;-0.90;98.48
3812;BME280;1921;49.368;11.068;2023-01-27T06:30:42;97966.75;;;-0.84;97.65
3812;BME280;1921;49.368;11.068;2023-01-27T06:33:09;97983.72;;;-1.37;100.00
3812;BME280;1921;49.368;11.068;2023-01-27T06:35:37;97952.78;;;-1.89;100.00
3812;BME280;1921;49.368;11.068;2023-01-27T06:38:06;97932.53;;;-1.92;100.00
3812;BME280;1921;49.368;11.068;2023-01-27T06:40:34;97988.28;;;-1.70;100.00
3812;BME280;1921;49.368;11.068;2023-01-27T06:43:00;98008.81;;;-1.57;100.00
3812;BME280;1921;49.368;11.068;2023-01-27T06:45:27;97932.81;;;-2.11;100.00
3812;BME280;1921;49.368;11.068;2023-01-27T06:47:58;97932.25;;;-2.02;100.00
3812;BME280;1921;49.368;11.068;2023-01-27T06:50:27;97996.78;;;-1.41;100.00
3812;BME280;1921;49.368;11.068;2023-01-27T06:52:59;97956.53;;;-1.66;100.00
3812;BME280;1921;49.368;11.068;2023-01-27T06:55:29;97942.78;;;-1.51;100.00
3812;BME280;1921;49.368;11.068;2023-01-27T06:57:55;97956.63;;;-1.68;100.00
3812;BME280;1921;49.368;11.068;2023-01-27T07:00:21;97994.00;;;-1.38;100.00
3812;BME280;1921;49.368;11.068;2023-01-27T07:02:46;97937.50;;;-1.48;100.00
3812;BME280;1921;49.368;11.068;2023-01-27T07:05:13;97970.44;;;-1.29;97.68
3812;BME280;1921;49.368;11.068;2023-01-27T07:07:39;97981.56;;;-1.16;97.93
3812;BME280;1921;49.368;11.068;2023-01-27T07:10:06;97975.00;;;-1.34;98.23
3812;BME280;1921;49.368;11.068;2023-01-27T07:12:32;97949.75;;;-1.53;97.53
3812;BME280;1921;49.368;11.068;2023-01-27T07:15:06;98000.94;;;-1.12;96.76
3812;BME280;1921;49.368;11.068;2023-01-27T07:17:32;97984.97;;;-1.29;96.27
3812;BME280;1921;49.368;11.068;2023-01-27T07:19:58;97951.66;;;-1.15;95.54
3812;BME280;1921;49.368;11.068;2023-01-27T07:22:24;97995.16;;;-0.74;93.62
3812;BME280;1921;49.368;11.068;2023-01-27T07:24:50;98008.63;;;-0.85;93.42
3812;BME280;1921;49.368;11.068;2023-01-27T07:27:16;97992.72;;;-0.90;94.02
3812;BME280;1921;49.368;11.068;2023-01-27T07:29:43;97954.66;;;-0.82;93.50
3812;BME280;1921;49.368;11.068;2023-01-27T07:32:08;97945.00;;;-0.91;93.01
3812;BME280;1921;49.368;11.068;2023-01-27T07:34:34;97990.81;;;-0.86;92.02
3812;BME280;1921;49.368;11.068;2023-01-27T07:37:00;98029.91;;;-1.11;93.63
3812;BME280;1921;49.368;11.068;2023-01-27T07:39:26;97988.56;;;-1.60;97.31
3812;BME280;1921;49.368;11.068;2023-01-27T07:41:52;97996.56;;;-1.38;96.32
3812;BME280;1921;49.368;11.068;2023-01-27T07:44:18;97982.97;;;-1.39;96.45
3812;BME280;1921;49.368;11.068;2023-01-27T07:46:46;98023.97;;;-1.12;96.32
3812;BME280;1921;49.368;11.068;2023-01-27T07:49:11;97973.00;;;-1.29;96.31
3812;BME280;1921;49.368;11.068;2023-01-27T07:51:37;98027.13;;;-1.08;94.22
3812;BME280;1921;49.368;11.068;2023-01-27T07:54:04;97997.84;;;-1.45;95.88
3812;BME280;1921;49.368;11.068;2023-01-27T07:56:30;97994.34;;;-1.16;96.11
3812;BME280;1921;49.368;11.068;2023-01-27T07:58:57;98029.84;;;-0.97;93.25
3812;BME280;1921;49.368;11.068;2023-01-27T08:01:23;98058.25;;;-0.73;93.51
3812;BME280;1921;49.368;11.068;2023-01-27T08:03:49;98031.13;;;-0.90;94.47
3812;BME280;1921;49.368;11.068;2023-01-27T08:06:15;98050.72;;;-0.62;93.25
3812;BME280;1921;49.368;11.068;2023-01-27T08:08:41;98041.63;;;-0.53;93.16
3812;BME280;1921;49.368;11.068;2023-01-27T08:11:08;98047.09;;;-0.32;90.75
3812;BME280;1921;49.368;11.068;2023-01-27T08:13:35;98032.31;;;-0.95;91.97
3812;BME280;1921;49.368;11.068;2023-01-27T08:16:03;97977.97;;;-1.69;93.98
3812;BME280;1921;49.368;11.068;2023-01-27T08:18:31;98022.31;;;-1.55;97.19
3812;BME280;1921;49.368;11.068;2023-01-27T08:21:03;98050.84;;;-1.33;96.50
3812;BME280;1921;49.368;11.068;2023-01-27T08:23:31;97953.56;;;-1.46;96.30
3812;BME280;1921;49.368;11.068;2023-01-27T08:26:00;98001.78;;;-1.40;95.05
3812;BME280;1921;49.368;11.068;2023-01-27T08:28:27;98027.91;;;-0.93;94.53
3812;BME280;1921;49.368;11.068;2023-01-27T08:30:54;97973.56;;;-0.57;92.82
3812;BME280;1921;49.368;11.068;2023-01-27T08:33:22;98000.63;;;-0.53;90.80
3812;BME280;1921;49.368;11.068;2023-01-27T08:35:49;98040.06;;;-0.29;89.45
3812;BME280;1921;49.368;11.068;2023-01-27T08:38:17;97946.13;;;-1.22;92.07
3812;BME280;1921;49.368;11.068;2023-01-27T08:40:45;97968.53;;;-0.98;90.43
3812;BME280;1921;49.368;11.068;2023-01-27T08:43:11;98059.06;;;-0.06;90.46
3812;BME280;1921;49.368;11.068;2023-01-27T08:45:38;98050.91;;;-0.25;90.22
3812;BME280;1921;49.368;11.068;2023-01-27T08:48:04;98001.16;;;-0.48;90.32
3812;BME280;1921;49.368;11.068;2023-01-27T08:50:33;97893.00;;;-1.18;89.03
3812;BME280;1921;49.368;11.068;2023-01-27T08:52:59;98034.84;;;-0.81;92.13
3812;BME280;1921;49.368;11.068;2023-01-27T08:55:27;98041.41;;;-0.77;92.30
3812;BME280;1921;49.368;11.068;2023-01-27T08:57:54;98017.00;;;-0.83;92.93
3812;BME280;1921;49.368;11.068;2023-01-27T09:00:20;98033.91;;;-0.13;90.21
3812;BME280;1921;49.368;11.068;2023-01-27T09:02:47;98006.00;;;-0.70;90.49
3812;BME280;1921;49.368;11.068;2023-01-27T09:05:12;98035.88;;;-0.17;91.17
3812;BME280;1921;49.368;11.068;2023-01-27T09:07:38;98032.94;;;0.53;91.00
3812;BME280;1921;49.368;11.068;2023-01-27T09:10:05;97991.78;;;0.42;84.74
3812;BME280;1921;49.368;11.068;2023-01-27T09:12:31;97947.59;;;0.25;83.65
3812;BME280;1921;49.368;11.068;2023-01-27T09:14:57;98005.44;;;1.28;84.13
3812;BME280;1921;49.368;11.068;2023-01-27T09:17:26;97992.38;;;1.31;79.26
3812;BME280;1921;49.368;11.068;2023-01-27T09:19:52;98003.94;;;0.89;81.99
3812;BME280;1921;49.368;11.068;2023-01-27T09:22:18;98021.06;;;1.25;80.21
3812;BME280;1921;49.368;11.068;2023-01-27T09:24:44;98001.88;;;1.18;79.89
3812;BME280;1921;49.368;11.068;2023-01-27T09:27:09;98062.84;;;0.91;81.98
3812;BME280;1921;49.368;11.068;2023-01-27T09:29:35;98005.69;;;0.89;80.89
3812;BME280;1921;49.368;11.068;2023-01-27T09:32:02;98015.38;;;0.60;82.15
3812;BME280;1921;49.368;11.068;2023-01-27T09:34:34;98089.63;;;-0.03;87.55
3812;BME280;1921;49.368;11.068;2023-01-27T09:37:09;98007.97;;;-0.34;85.85
3812;BME280;1921;49.368;11.068;2023-01-27T09:39:48;98013.22;;;-0.50;86.79
3812;BME280;1921;49.368;11.068;2023-01-27T09:42:45;98090.81;;;0.32;86.54
3812;BME280;1921;49.368;11.068;2023-01-27T09:48:32;98089.44;;;1.02;82.68
3812;BME280;1921;49.368;11.068;2023-01-27T10:00:15;98090.50;;;0.87;82.53
3812;BME280;1921;49.368;11.068;2023-01-27T10:08:45;98101.09;;;0.70;82.82
3812;BME280;1921;49.368;11.068;2023-01-27T10:17:50;98090.84;;;1.56;77.03
3812;BME280;1921;49.368;11.068;2023-01-27T10:20:39;98094.75;;;1.73;77.30
3812;BME280;1921;49.368;11.068;2023-01-27T10:26:49;98070.53;;;1.40;77.12
3812;BME280;1921;49.368;11.068;2023-01-27T10:32:12;98090.84;;;1.19;78.56
3812;BME280;1921;49.368;11.068;2023-01-27T10:37:33;98065.50;;;-0.52;86.16
3812;BME280;1921;49.368;11.068;2023-01-27T10:43:32;98067.06;;;-0.64;89.04
3812;BME280;1921;49.368;11.068;2023-01-27T10:49:29;98100.44;;;0.28;87.47
3812;BME280;1921;49.368;11.068;2023-01-27T10:52:23;98112.75;;;0.23;85.37
3812;BME280;1921;49.368;11.068;2023-01-27T10:55:15;98011.97;;;-0.57;85.62
3812;BME280;1921;49.368;11.068;2023-01-27T10:57:56;98113.00;;;-0.34;88.33
3812;BME280;1921;49.368;11.068;2023-01-27T11:00:47;98093.75;;;-0.54;90.09
3812;BME280;1921;49.368;11.068;2023-01-27T11:06:02;98066.59;;;0.36;84.02
3812;BME280;1921;49.368;11.068;2023-01-27T11:08:34;98040.91;;;-0.03;85.75
3812;BME280;1921;49.368;11.068;2023-01-27T11:11:06;98014.06;;;0.41;83.64
3812;BME280;1921;49.368;11.068;2023-01-27T11:14:01;98048.91;;;0.82;80.80
3812;BME280;1921;49.368;11.068;2023-01-27T11:16:37;98075.13;;;1.48;79.79
3812;BME280;1921;49.368;11.068;2023-01-27T11:19:55;98034.94;;;0.73;79.56
3812;BME280;1921;49.368;11.068;2023-01-27T11:22:32;98064.28;;;1.07;82.20
3812;BME280;1921;49.368;11.068;2023-01-27T11:25:26;98019.59;;;1.34;78.37
3812;BME280;1921;49.368;11.068;2023-01-27T11:31:43;98019.09;;;-0.75;86.96
3812;BME280;1921;49.368;11.068;2023-01-27T11:34:25;98091.38;;;0.10;86.17
3812;BME280;1921;49.368;11.068;2023-01-27T11:36:55;98024.66;;;-0.41;86.14
3812;BME280;1921;49.368;11.068;2023-01-27T11:39:21;98037.41;;;-0.14;86.00
3812;BME280;1921;49.368;11.068;2023-01-27T11:41:52;98038.69;;;0.57;85.31
3812;BME280;1921;49.368;11.068;2023-01-27T11:44:23;98011.91;;;0.48;82.47
3812;BME280;1921;49.368;11.068;2023-01-27T11:46:49;98010.28;;;0.34;81.61
3812;BME280;1921;49.368;11.068;2023-01-27T11:49:27;98085.56;;;0.08;86.18
3812;BME280;1921;49.368;11.068;2023-01-27T11:52:01;98059.28;;;0.04;87.53
3812;BME280;1921;49.368;11.068;2023-01-27T11:55:25;98031.88;;;-0.08;86.79
3812;BME280;1921;49.368;11.068;2023-01-27T11:57:25;98003.69;;;-0.08;86.72
3812;BME280;1921;49.368;11.068;2023-01-27T12:00:28;98080.94;;;0.00;88.59
3812;BME280;1921;49.368;11.068;2023-01-27T12:05:37;97988.59;;;-0.25;87.13
3812;BME280;1921;49.368;11.068;2023-01-27T12:08:05;98025.00;;;-0.08;86.30
3812;BME280;1921;49.368;11.068;2023-01-27T12:10:40;97985.16;;;0.01;85.50
3812;BME280;1921;49.368;11.068;2023-01-27T12:13:24;97992.63;;;0.04;85.14
3812;BME280;1921;49.368;11.068;2023-01-27T12:15:54;97981.03;;;-0.02;85.05
3812;BME280;1921;49.368;11.068;2023-01-27T12:18:21;98012.22;;;0.05;86.00
3812;BME280;1921;49.368;11.068;2023-01-27T12:21:00;97984.22;;;0.28;85.70
3812;BME280;1921;49.368;11.068;2023-01-27T12:23:51;97989.88;;;0.20;85.09
3812;BME280;1921;49.368;11.068;2023-01-27T12:26:38;98022.69;;;0.28;85.00
3812;BME280;1921;49.368;11.068;2023-01-27T12:29:25;98002.16;;;0.28;85.69
3812;BME280;1921;49.368;11.068;2023-01-27T12:31:54;98009.84;;;0.40;83.48
3812;BME280;1921;49.368;11.068;2023-01-27T12:34:32;97986.56;;;0.31;84.83
3812;BME280;1921;49.368;11.068;2023-01-27T12:37:05;98000.94;;;0.46;83.38
3812;BME280;1921;49.368;11.068;2023-01-27T12:39:58;97985.84;;;-0.10;84.92
3812;BME280;1921;49.368;11.068;2023-01-27T12:42:42;98001.13;;;0.30;85.72
3812;BME280;1921;49.368;11.068;2023-01-27T12:45:31;98020.16;;;0.90;83.29
3812;BME280;1921;49.368;11.068;2023-01-27T12:53:21;97951.41;;;-0.06;84.00
3812;BME280;1921;49.368;11.068;2023-01-27T12:58:37;98019.88;;;1.18;81.68
3812;BME280;1921;49.368;11.068;2023-01-27T13:01:32;98023.78;;;0.62;82.35
3812;BME280;1921;49.368;11.068;2023-01-27T13:04:18;98016.03;;;0.25;85.19
3812;BME280;1921;49.368;11.068;2023-01-27T13:06:48;97927.84;;;-0.23;84.14
3812;BME280;1921;49.368;11.068;2023-01-27T13:09:36;98049.78;;;0.57;83.78
3812;BME280;1921;49.368;11.068;2023-01-27T13:12:24;97968.28;;;0.48;82.39
3812;BME280;1921;49.368;11.068;2023-01-27T13:14:55;97981.47;;;0.67;81.09
3812;BME280;1921;49.368;11.068;2023-01-27T13:17:35;98011.09;;;0.97;79.83
3812;BME280;1921;49.368;11.068;2023-01-27T13:20:49;98028.91;;;1.11;80.26
3812;BME280;1921;49.368;11.068;2023-01-27T13:23:19;97984.13;;;0.16;84.16
3812;BME280;1921;49.368;11.068;2023-01-27T13:34:45;98034.06;;;0.49;84.43
3812;BME280;1921;49.368;11.068;2023-01-27T13:40:20;98017.34;;;0.05;86.27
3812;BME280;1921;49.368;11.068;2023-01-27T13:43:15;98051.81;;;0.14;86.10
3812;BME280;1921;49.368;11.068;2023-01-27T13:45:55;97959.41;;;-0.23;84.54
3812;BME280;1921;49.368;11.068;2023-01-27T13:48:31;98046.28;;;0.33;85.52
3812;BME280;1921;49.368;11.068;2023-01-27T13:51:21;98023.91;;;-0.04;86.47
3812;BME280;1921;49.368;11.068;2023-01-27T13:54:02;97949.56;;;-0.29;85.60
3812;BME280;1921;49.368;11.068;2023-01-27T13:57:03;98001.13;;;0.17;83.73
3812;BME280;1921;49.368;11.068;2023-01-27T14:05:27;98061.84;;;0.68;82.81
3812;BME280;1921;49.368;11.068;2023-01-27T14:08:43;98064.53;;;0.66;82.57
3812;BME280;1921;49.368;11.068;2023-01-27T14:11:50;98068.81;;;0.91;82.10
3812;BME280;1921;49.368;11.068;2023-01-27T14:17:22;98042.78;;;0.46;81.86
3812;BME280;1921;49.368;11.068;2023-01-27T14:22:47;98067.16;;;-0.12;85.28
3812;BME280;1921;49.368;11.068;2023-01-27T14:31:17;98052.00;;;0.23;83.27
3812;BME280;1921;49.368;11.068;2023-01-27T14:40:30;98074.91;;;0.14;84.88
3812;BME280;1921;49.368;11.068;2023-01-27T14:46:09;98067.91;;;0.16;83.20
3812;BME280;1921;49.368;11.068;2023-01-27T14:49:16;98064.25;;;0.20;83.18
3812;BME280;1921;49.368;11.068;2023-01-27T14:51:52;98056.97;;;-0.13;83.02
3812;BME280;1921;49.368;11.068;2023-01-27T14:57:32;98097.59;;;-0.07;83.57
3812;BME280;1921;49.368;11.068;2023-01-27T15:03:02;98088.16;;;-0.07;84.27
3812;BME280;1921;49.368;11.068;2023-01-27T15:06:00;98046.28;;;0.07;83.24
3812;BME280;1921;49.368;11.068;2023-01-27T15:08:42;98078.31;;;0.40;82.86
3812;BME280;1921;49.368;11.068;2023-01-27T15:20:33;98086.56;;;0.18;82.67
3812;BME280;1921;49.368;11.068;2023-01-27T15:23:36;98020.56;;;-0.31;82.56
3812;BME280;1921;49.368;11.068;2023-01-27T15:26:08;98074.13;;;-0.01;82.35
3812;BME280;1921;49.368;11.068;2023-01-27T15:28:40;98035.28;;;-0.47;82.38
3812;BME280;1921;49.368;11.068;2023-01-27T15:33:49;98045.97;;;-0.41;82.49
3812;BME280;1921;49.368;11.068;2023-01-27T15:41:51;98008.59;;;-0.58;83.39
3812;BME280;1921;49.368;11.068;2023-01-27T15:46:50;98060.66;;;-0.30;83.70